Observation data for Morton on 04/22/2019      Previous  Date  Next       Current Mesonet Observations  Soil Data  Daily Summary Page  Observations in Plain Language
KMNS 220500Z 23012KT 20/M07 A2991 RMK A01 T01971069  RH  016%=      5-min Rain = 0
KMNS 220505Z 22012KT 20/M07 A2991 RMK A01 T01971068  RH  016%=      5-min Rain = 0
KMNS 220510Z 23011KT 19/M07 A2991 RMK A01 T01921066  RH  017%=      5-min Rain = 0
KMNS 220515Z 23011KT 19/M07 A2992 RMK A01 T01881065  RH  017%=      5-min Rain = 0
KMNS 220520Z 24011KT 19/M07 A2992 RMK A01 T01861065  RH  018%=      5-min Rain = 0
KMNS 220525Z 23011KT 19/M07 A2992 RMK A01 T01891065  RH  017%=      5-min Rain = 0
KMNS 220530Z 24011KT 19/M06 A2992 RMK A01 T01901064  RH  017%=      5-min Rain = 0
KMNS 220535Z 23010KT 19/M06 A2992 RMK A01 T01881064  RH  018%=      5-min Rain = 0
KMNS 220540Z 24009KT 18/M06 A2992 RMK A01 T01831063  RH  018%=      5-min Rain = 0
KMNS 220545Z 24009KT 18/M06 A2992 RMK A01 T01801062  RH  019%=      5-min Rain = 0
KMNS 220550Z 24009KT 18/M06 A2992 RMK A01 T01751061  RH  019%=      5-min Rain = 0
KMNS 220555Z 24009KT 18/M06 A2992 RMK A01 T01751060  RH  020%=      5-min Rain = 0
KMNS 220600Z 23010KT 18/M06 A2992 RMK A01 T01791059  RH  019%=      5-min Rain = 0
KMNS 220605Z 23010KT 18/M06 A2992 RMK A01 T01801059  RH  019%=      5-min Rain = 0
KMNS 220610Z 23011G16KT 18/M06 A2992 RMK A01 T01821060  RH  019%=      5-min Rain = 0
KMNS 220615Z 23010KT 18/M06 A2992 RMK A01 T01801060  RH  019%=      5-min Rain = 0
KMNS 220620Z 22010KT 18/M06 A2992 RMK A01 T01781059  RH  019%=      5-min Rain = 0
KMNS 220625Z 22010KT 18/M06 A2992 RMK A01 T01761059  RH  020%=      5-min Rain = 0
KMNS 220630Z 22010KT 18/M06 A2992 RMK A01 T01761058  RH  020%=      5-min Rain = 0
KMNS 220635Z 22010KT 18/M06 A2992 RMK A01 T01761058  RH  020%=      5-min Rain = 0
KMNS 220640Z 23010KT 18/M06 A2992 RMK A01 T01751057  RH  020%=      5-min Rain = 0
KMNS 220645Z 24009KT 17/M06 A2992 RMK A01 T01741056  RH  020%=      5-min Rain = 0
KMNS 220650Z 23010KT 18/M06 A2991 RMK A01 T01751056  RH  020%=      5-min Rain = 0
KMNS 220655Z 27008KT 16/M05 A2991 RMK A01 T01631054  RH  022%=      5-min Rain = 0
KMNS 220700Z 25009KT 15/M05 A2991 RMK A01 T01521049  RH  025%=      5-min Rain = 0
KMNS 220705Z 27007KT 14/M05 A2991 RMK A01 T01391047  RH  027%=      5-min Rain = 0
KMNS 220710Z 26008KT 14/M04 A2991 RMK A01 T01351044  RH  029%=      5-min Rain = 0
KMNS 220715Z 27006KT 13/M05 A2991 RMK A01 T01321046  RH  029%=      5-min Rain = 0
KMNS 220720Z 27007KT 12/M04 A2991 RMK A01 T01231041  RH  032%=      5-min Rain = 0
KMNS 220725Z 27007KT 13/M04 A2991 RMK A01 T01251042  RH  031%=      5-min Rain = 0
KMNS 220730Z 27006KT 12/M04 A2991 RMK A01 T01211038  RH  033%=      5-min Rain = 0
KMNS 220735Z 27006KT 12/M04 A2991 RMK A01 T01181040  RH  033%=      5-min Rain = 0
KMNS 220740Z 27006KT 12/M04 A2991 RMK A01 T01181040  RH  033%=      5-min Rain = 0
KMNS 220745Z 20006G11KT 12/M04 A2992 RMK A01 T01161039  RH  034%=      5-min Rain = 0
KMNS 220750Z 19008KT 14/M04 A2993 RMK A01 T01391040  RH  029%=      5-min Rain = 0
KMNS 220755Z 20008KT 15/M04 A2992 RMK A01 T01481043  RH  027%=      5-min Rain = 0
KMNS 220800Z 20007KT 15/M04 A2992 RMK A01 T01481043  RH  026%=      5-min Rain = 0
KMNS 220805Z 20008G14KT 15/M04 A2993 RMK A01 T01501041  RH  027%=      5-min Rain = 0
KMNS 220810Z 21011KT 17/M01 A2992 RMK A01 T01701010  RH  030%=      5-min Rain = 0
KMNS 220815Z 21013KT 18/01 A2993 RMK A01 T01830007  RH  031%=      5-min Rain = 0
KMNS 220820Z 20012KT 19/00 A2993 RMK A01 T01880003  RH  029%=      5-min Rain = 0
KMNS 220825Z 20010KT 18/M00 A2993 RMK A01 T01831004  RH  029%=      5-min Rain = 0
KMNS 220830Z 21009KT 17/M02 A2994 RMK A01 T01731017  RH  028%=      5-min Rain = 0
KMNS 220835Z 22008KT 17/M01 A2994 RMK A01 T01741005  RH  030%=      5-min Rain = 0
KMNS 220840Z 22008KT 18/01 A2993 RMK A01 T01750008  RH  033%=      5-min Rain = 0
KMNS 220845Z 21007KT 17/02 A2993 RMK A01 T01730022  RH  037%=      5-min Rain = 0
KMNS 220850Z 21007KT 17/03 A2994 RMK A01 T01670026  RH  039%=      5-min Rain = 0
KMNS 220855Z 21007KT 16/03 A2994 RMK A01 T01610027  RH  041%=      5-min Rain = 0
KMNS 220900Z 21006KT 16/03 A2994 RMK A01 T01570027  RH  042%=      5-min Rain = 0
KMNS 220905Z 22004KT 15/03 A2994 RMK A01 T01540028  RH  043%=      5-min Rain = 0
KMNS 220910Z 23002KT 15/03 A2994 RMK A01 T01540030  RH  044%=      5-min Rain = 0
KMNS 220915Z 22001KT 15/03 A2994 RMK A01 T01510031  RH  045%=      5-min Rain = 0
KMNS 220920Z 21002KT 15/03 A2994 RMK A01 T01500033  RH  046%=      5-min Rain = 0
KMNS 220925Z 21003KT 15/03 A2994 RMK A01 T01520034  RH  046%=      5-min Rain = 0
KMNS 220930Z 21004KT 15/04 A2994 RMK A01 T01520035  RH  046%=      5-min Rain = 0
KMNS 220935Z 20004KT 15/04 A2994 RMK A01 T01500037  RH  047%=      5-min Rain = 0
KMNS 220940Z 21004KT 15/04 A2994 RMK A01 T01480038  RH  048%=      5-min Rain = 0
KMNS 220945Z 21004KT 14/04 A2994 RMK A01 T01420035  RH  050%=      5-min Rain = 0
KMNS 220950Z 21004KT 14/03 A2994 RMK A01 T01350030  RH  050%=      5-min Rain = 0
KMNS 220955Z 22005KT 13/04 A2994 RMK A01 T01330036  RH  053%=      5-min Rain = 0
KMNS 221000Z 25004KT 13/04 A2994 RMK A01 T01310042  RH  056%=      5-min Rain = 0
KMNS 221005Z 27005KT 12/04 A2994 RMK A01 T01220041  RH  059%=      5-min Rain = 0
KMNS 221010Z 28006KT 11/03 A2994 RMK A01 T01130034  RH  059%=      5-min Rain = 0
KMNS 221015Z 28007KT 11/03 A2994 RMK A01 T01140034  RH  059%=      5-min Rain = 0
KMNS 221020Z 27006KT 12/04 A2994 RMK A01 T01170035  RH  058%=      5-min Rain = 0
KMNS 221025Z 28006KT 11/03 A2994 RMK A01 T01140031  RH  058%=      5-min Rain = 0
KMNS 221030Z 28005KT 11/03 A2994 RMK A01 T01110027  RH  057%=      5-min Rain = 0
KMNS 221035Z 29003KT 11/02 A2994 RMK A01 T01110024  RH  056%=      5-min Rain = 0
KMNS 221040Z 36010G17KT 11/02 A2994 RMK A01 T01060017  RH  055%=      5-min Rain = 0
KMNS 221045Z 35015G21KT 12/03 A2995 RMK A01 T01240028  RH  053%=      5-min Rain = 0
KMNS 221050Z 33011G16KT 15/06 A2995 RMK A01 T01450060  RH  058%=      5-min Rain = 0
KMNS 221055Z 35013KT 15/06 A2996 RMK A01 T01470057  RH  056%=      5-min Rain = 0
KMNS 221100Z 35010G15KT 15/05 A2996 RMK A01 T01460051  RH  054%=      5-min Rain = 0
KMNS 221105Z 00011KT 13/01 A2996 RMK A01 T01320012  RH  045%=      5-min Rain = 0
KMNS 221110Z 01011KT 12/00 A2996 RMK A01 T01230002  RH  044%=      5-min Rain = 0
KMNS 221115Z 02012KT 12/00 A2996 RMK A01 T01200000  RH  044%=      5-min Rain = 0
KMNS 221120Z 02010KT 12/00 A2997 RMK A01 T01180002  RH  045%=      5-min Rain = 0
KMNS 221125Z 02010KT 12/01 A2997 RMK A01 T01190008  RH  047%=      5-min Rain = 0
KMNS 221130Z 02010KT 12/02 A2997 RMK A01 T01200015  RH  049%=      5-min Rain = 0
KMNS 221135Z 02010KT 12/02 A2998 RMK A01 T01210022  RH  051%=      5-min Rain = 0
KMNS 221140Z 02013KT 12/03 A2998 RMK A01 T01240031  RH  054%=      5-min Rain = 0
KMNS 221145Z 02012KT 13/04 A2998 RMK A01 T01250036  RH  055%=      5-min Rain = 0
KMNS 221150Z 02013KT 13/04 A2999 RMK A01 T01250039  RH  057%=      5-min Rain = 0
KMNS 221155Z 03011KT 12/04 A30 RMK A01 T01240040  RH  058%=      5-min Rain = 0
KMNS 221200Z 03011KT 12/04 A30 RMK A01 T01230042  RH  059%=      5-min Rain = 0
KMNS 221205Z 03011KT 12/04 A30 RMK A01 T01220043  RH  060%=      5-min Rain = 0
KMNS 221210Z 03013KT 12/04 A30 RMK A01 T01210043  RH  060%=      5-min Rain = 0
KMNS 221215Z 03014KT 12/04 A30 RMK A01 T01210044  RH  061%=      5-min Rain = 0
KMNS 221220Z 03014KT 12/05 A30 RMK A01 T01200045  RH  061%=      5-min Rain = 0
KMNS 221225Z 03014KT 12/05 A30 RMK A01 T01200045  RH  061%=      5-min Rain = 0
KMNS 221230Z 03013KT 12/05 A3001 RMK A01 T01190045  RH  062%=      5-min Rain = 0
KMNS 221235Z 03013KT 12/05 A3001 RMK A01 T01190045  RH  062%=      5-min Rain = 0
KMNS 221240Z 03012KT 12/05 A3001 RMK A01 T01170045  RH  063%=      5-min Rain = 0
KMNS 221245Z 04011KT 12/05 A3001 RMK A01 T01170046  RH  063%=      5-min Rain = 0
KMNS 221250Z 04010KT 12/05 A3002 RMK A01 T01160046  RH  063%=      5-min Rain = 0
KMNS 221255Z 03011KT 12/05 A3002 RMK A01 T01150046  RH  064%=      5-min Rain = 0
KMNS 221300Z 03011KT 12/05 A3003 RMK A01 T01150047  RH  064%=      5-min Rain = 0
KMNS 221305Z 04010KT 12/05 A3003 RMK A01 T01160047  RH  064%=      5-min Rain = 0
KMNS 221310Z 04011KT 12/05 A3003 RMK A01 T01160048  RH  064%=      5-min Rain = 0
KMNS 221315Z 03011G16KT 12/05 A3004 RMK A01 T01170048  RH  064%=      5-min Rain = 0
KMNS 221320Z 03012KT 12/05 A3004 RMK A01 T01170049  RH  064%=      5-min Rain = 0
KMNS 221325Z 03013KT 12/05 A3004 RMK A01 T01180049  RH  064%=      5-min Rain = 0
KMNS 221330Z 03015KT 12/05 A3004 RMK A01 T01190050  RH  064%=      5-min Rain = 0
KMNS 221335Z 03014KT 12/05 A3004 RMK A01 T01190051  RH  064%=      5-min Rain = 0
KMNS 221340Z 03013G19KT 12/05 A3004 RMK A01 T01210051  RH  064%=      5-min Rain = 0
KMNS 221345Z 03013KT 12/05 A3005 RMK A01 T01220051  RH  063%=      5-min Rain = 0
KMNS 221350Z 03014G20KT 12/05 A3005 RMK A01 T01240051  RH  063%=      5-min Rain = 0
KMNS 221355Z 03018KT 12/05 A3005 RMK A01 T01230052  RH  063%=      5-min Rain = 0
KMNS 221400Z 03016G21KT 12/05 A3005 RMK A01 T01240053  RH  063%=      5-min Rain = 0
KMNS 221405Z 03018KT 13/05 A3005 RMK A01 T01250053  RH  063%=      5-min Rain = 0
KMNS 221410Z 03017KT 13/05 A3005 RMK A01 T01250054  RH  063%=      5-min Rain = 0
KMNS 221415Z 03017KT 13/05 A3005 RMK A01 T01250054  RH  063%=      5-min Rain = 0
KMNS 221420Z 03016G21KT 12/05 A3005 RMK A01 T01240054  RH  064%=      5-min Rain = 0
KMNS 221425Z 02016KT 13/06 A3006 RMK A01 T01260055  RH  063%=      5-min Rain = 0
KMNS 221430Z 03017KT 13/06 A3006 RMK A01 T01250056  RH  064%=      5-min Rain = 0
KMNS 221435Z 03016G21KT 13/06 A3006 RMK A01 T01260057  RH  064%=      5-min Rain = 0
KMNS 221440Z 03017KT 13/06 A3006 RMK A01 T01260058  RH  064%=      5-min Rain = 0
KMNS 221445Z 03018KT 13/06 A3006 RMK A01 T01280059  RH  064%=      5-min Rain = 0
KMNS 221450Z 03019KT 13/06 A3006 RMK A01 T01270059  RH  065%=      5-min Rain = 0
KMNS 221455Z 03020KT 13/06 A3006 RMK A01 T01270060  RH  065%=      5-min Rain = 0
KMNS 221500Z 03019KT 13/06 A3006 RMK A01 T01290061  RH  065%=      5-min Rain = 0
KMNS 221505Z 04019KT 13/06 A3006 RMK A01 T01300062  RH  065%=      5-min Rain = 0
KMNS 221510Z 04018G23KT 13/06 A3006 RMK A01 T01310063  RH  064%=      5-min Rain = 0
KMNS 221515Z 04017KT 13/06 A3006 RMK A01 T01320063  RH  064%=      5-min Rain = 0
KMNS 221520Z 03017KT 13/06 A3006 RMK A01 T01330064  RH  064%=      5-min Rain = 0
KMNS 221525Z 03019KT 13/06 A3006 RMK A01 T01320064  RH  065%=      5-min Rain = 0
KMNS 221530Z 04018KT 13/07 A3006 RMK A01 T01340065  RH  064%=      5-min Rain = 0
KMNS 221535Z 04018KT 14/07 A3006 RMK A01 T01350065  RH  064%=      5-min Rain = 0
KMNS 221540Z 04017KT 14/07 A3006 RMK A01 T01360066  RH  064%=      5-min Rain = 0
KMNS 221545Z 03017G22KT 14/07 A3006 RMK A01 T01380067  RH  064%=      5-min Rain = 0
KMNS 221550Z 04019KT 14/07 A3006 RMK A01 T01390068  RH  064%=      5-min Rain = 0
KMNS 221555Z 04018KT 14/07 A3006 RMK A01 T01410069  RH  063%=      5-min Rain = 0
KMNS 221600Z 04018G23KT 15/07 A3006 RMK A01 T01450070  RH  062%=      5-min Rain = 0
KMNS 221605Z 04019KT 15/07 A3006 RMK A01 T01450070  RH  062%=      5-min Rain = 0
KMNS 221610Z 04019KT 15/07 A3006 RMK A01 T01480070  RH  061%=      5-min Rain = 0
KMNS 221615Z 04018KT 15/07 A3006 RMK A01 T01490070  RH  061%=      5-min Rain = 0
KMNS 221620Z 04019KT 15/07 A3006 RMK A01 T01520071  RH  060%=      5-min Rain = 0
KMNS 221625Z 04019KT 16/07 A3006 RMK A01 T01550071  RH  059%=      5-min Rain = 0
KMNS 221630Z 03019KT 16/07 A3006 RMK A01 T01570071  RH  058%=      5-min Rain = 0
KMNS 221635Z 04017KT 16/07 A3006 RMK A01 T01580072  RH  058%=      5-min Rain = 0
KMNS 221640Z 04019G24KT 16/07 A3006 RMK A01 T01580071  RH  058%=      5-min Rain = 0
KMNS 221645Z 04018G23KT 16/07 A3006 RMK A01 T01580072  RH  058%=      5-min Rain = 0
KMNS 221650Z 04017G22KT 16/07 A3006 RMK A01 T01600072  RH  057%=      5-min Rain = 0
KMNS 221655Z 04018KT 16/07 A3006 RMK A01 T01610072  RH  057%=      5-min Rain = 0
KMNS 221700Z 03017G22KT 16/07 A3006 RMK A01 T01610073  RH  057%=      5-min Rain = 0
KMNS 221705Z 03019G24KT 16/07 A3006 RMK A01 T01610072  RH  057%=      5-min Rain = 0
KMNS 221710Z 03019G24KT 16/07 A3005 RMK A01 T01610072  RH  057%=      5-min Rain = 0
KMNS 221715Z 03020G26KT 16/07 A3005 RMK A01 T01610072  RH  057%=      5-min Rain = 0
KMNS 221720Z 04018KT 17/07 A3005 RMK A01 T01650073  RH  056%=      5-min Rain = 0
KMNS 221725Z 04018G23KT 17/07 A3006 RMK A01 T01650073  RH  056%=      5-min Rain = 0
KMNS 221730Z 04016G21KT 17/07 A3007 RMK A01 T01680074  RH  055%=      5-min Rain = 0
KMNS 221735Z 04017KT 17/07 A3007 RMK A01 T01700074  RH  055%=      5-min Rain = 0
KMNS 221740Z 03018KT 17/07 A3006 RMK A01 T01710074  RH  054%=      5-min Rain = 0
KMNS 221745Z 03017KT 17/08 A3006 RMK A01 T01740075  RH  054%=      5-min Rain = 0
KMNS 221750Z 03016G21KT 18/08 A3007 RMK A01 T01750075  RH  053%=      5-min Rain = 0
KMNS 221755Z 03016KT 17/07 A3007 RMK A01 T01740074  RH  053%=      5-min Rain = 0
KMNS 221800Z 03016KT 17/07 A3008 RMK A01 T01730073  RH  053%=      5-min Rain = 0
KMNS 221805Z 03016G22KT 17/07 A3008 RMK A01 T01700073  RH  054%=      5-min Rain = 0
KMNS 221810Z 03018G24KT 17/07 A3006 RMK A01 T01710073  RH  054%=      5-min Rain = 0
KMNS 221815Z 03015G20KT 17/07 A3008 RMK A01 T01710073  RH  054%=      5-min Rain = 0
KMNS 221820Z 03017G22KT 17/07 A3007 RMK A01 T01720073  RH  054%=      5-min Rain = 0
KMNS 221825Z 04015G20KT 17/07 A3007 RMK A01 T01730074  RH  053%=      5-min Rain = 0
KMNS 221830Z 06012G18KT 17/07 A301 RMK A01 T01720074  RH  054%=      5-min Rain = 0
KMNS 221835Z 04014KT 17/07 A3009 RMK A01 T01710074  RH  054%=      5-min Rain = 0
KMNS 221840Z 05014G22KT 17/07 A3008 RMK A01 T01740074  RH  053%=      5-min Rain = 0
KMNS 221845Z 05013G18KT 17/07 A3008 RMK A01 T01740074  RH  053%=      5-min Rain = 0
KMNS 221850Z 04016KT 18/07 A3007 RMK A01 T01770074  RH  052%=      5-min Rain = 0
KMNS 221855Z 04019G25KT 18/07 A3005 RMK A01 T01790074  RH  052%=      5-min Rain = 0
KMNS 221900Z 06017KT 18/07 A3007 RMK A01 T01800074  RH  051%=      5-min Rain = 0
KMNS 221905Z 05015G20KT 18/07 A3008 RMK A01 T01760074  RH  052%=      5-min Rain = 0
KMNS 221910Z 04015KT 17/07 A3008 RMK A01 T01720073  RH  054%=      5-min Rain = 0
KMNS 221915Z 04015G20KT 17/07 A3006 RMK A01 T01740074  RH  053%=      5-min Rain = 0
KMNS 221920Z 05016G22KT 18/07 A3006 RMK A01 T01760074  RH  052%=      5-min Rain = 0
KMNS 221925Z 06016KT 18/08 A3006 RMK A01 T01760075  RH  053%=      5-min Rain = 0
KMNS 221930Z 05016G24KT 18/08 A3006 RMK A01 T01800075  RH  052%=      5-min Rain = 0
KMNS 221935Z 05014G19KT 18/08 A3007 RMK A01 T01780075  RH  052%=      5-min Rain = 0
KMNS 221940Z 04016G22KT 18/07 A3006 RMK A01 T01780074  RH  052%=      5-min Rain = 0
KMNS 221945Z 03012KT 18/07 A3008 RMK A01 T01780074  RH  052%=      5-min Rain = 0
KMNS 221950Z 05013KT 18/08 A3008 RMK A01 T01810075  RH  051%=      5-min Rain = 0
KMNS 221955Z 05012G17KT 18/08 A3009 RMK A01 T01800075  RH  052%=      5-min Rain = 0
KMNS 222000Z 05011KT 18/08 A3009 RMK A01 T01790075  RH  052%=      5-min Rain = 0
KMNS 222005Z 04014G21KT 18/08 A3008 RMK A01 T01830075  RH  051%=      5-min Rain = 0
KMNS 222010Z 06012G17KT 19/08 A3008 RMK A01 T01850077  RH  051%=      5-min Rain = 0
KMNS 222015Z 05012KT 19/08 A3008 RMK A01 T01860076  RH  050%=      5-min Rain = 0
KMNS 222020Z 04015KT 18/08 A3007 RMK A01 T01830075  RH  051%=      5-min Rain = 0
KMNS 222025Z 05013G20KT 18/08 A3008 RMK A01 T01840075  RH  050%=      5-min Rain = 0
KMNS 222030Z 05015KT 18/08 A3008 RMK A01 T01820075  RH  051%=      5-min Rain = 0
KMNS 222035Z 07011KT 18/08 A3009 RMK A01 T01810076  RH  052%=      5-min Rain = 0
KMNS 222040Z 06011G16KT 18/08 A3009 RMK A01 T01800076  RH  052%=      5-min Rain = 0
KMNS 222045Z 06013KT 18/08 A3008 RMK A01 T01810076  RH  052%=      5-min Rain = 0
KMNS 222050Z 05014KT 18/08 A3007 RMK A01 T01800075  RH  051%=      5-min Rain = 0
KMNS 222055Z 05014G22KT 18/08 A3007 RMK A01 T01810075  RH  051%=      5-min Rain = 0
KMNS 222100Z 05011KT 18/08 A3008 RMK A01 T01800075  RH  052%=      5-min Rain = 0
KMNS 222105Z 05014KT 18/08 A3007 RMK A01 T01800076  RH  052%=      5-min Rain = 0
KMNS 222110Z 05015G20KT 18/08 A3006 RMK A01 T01800077  RH  052%=      5-min Rain = 0
KMNS 222115Z 04017KT 18/08 A3006 RMK A01 T01800077  RH  052%=      5-min Rain = 0
KMNS 222120Z 05017KT 18/08 A3006 RMK A01 T01810077  RH  052%=      5-min Rain = 0
KMNS 222125Z 04016KT 18/08 A3006 RMK A01 T01820077  RH  052%=      5-min Rain = 0
KMNS 222130Z 05017KT 18/08 A3006 RMK A01 T01840077  RH  051%=      5-min Rain = 0
KMNS 222135Z 05017KT 18/08 A3005 RMK A01 T01840077  RH  051%=      5-min Rain = 0
KMNS 222140Z 05017G22KT 18/08 A3006 RMK A01 T01830076  RH  051%=      5-min Rain = 0
KMNS 222145Z 06015KT 18/08 A3006 RMK A01 T01830078  RH  052%=      5-min Rain = 0
KMNS 222150Z 06015G20KT 18/08 A3006 RMK A01 T01820077  RH  052%=      5-min Rain = 0
KMNS 222155Z 06012KT 18/08 A3007 RMK A01 T01810078  RH  052%=      5-min Rain = 0
KMNS 222200Z 07014KT 18/08 A3008 RMK A01 T01790078  RH  053%=      5-min Rain = 0
KMNS 222205Z 07013KT 18/08 A3008 RMK A01 T01800079  RH  053%=      5-min Rain = 0
KMNS 222210Z 07015KT 18/08 A3008 RMK A01 T01800082  RH  054%=      5-min Rain = 0
KMNS 222215Z 06013KT 18/09 A3007 RMK A01 T01800085  RH  055%=      5-min Rain = 0
KMNS 222220Z 06013KT 18/09 A3007 RMK A01 T01810086  RH  055%=      5-min Rain = 0
KMNS 222225Z 06014KT 18/08 A3007 RMK A01 T01790084  RH  055%=      5-min Rain = 0
KMNS 222230Z 06014KT 18/08 A3006 RMK A01 T01770084  RH  056%=      5-min Rain = 0
KMNS 222235Z 05016G21KT 18/08 A3006 RMK A01 T01770084  RH  056%=      5-min Rain = 0
KMNS 222240Z 05016KT 17/09 A3006 RMK A01 T01740087  RH  058%=      5-min Rain = 0
KMNS 222245Z 05016KT 17/09 A3006 RMK A01 T01710090  RH  061%=      5-min Rain = 0
KMNS 222250Z 05017KT 17/09 A3005 RMK A01 T01690091  RH  062%=      5-min Rain = 0
KMNS 222255Z 05015KT 17/09 A3005 RMK A01 T01670093  RH  064%=      5-min Rain = 0
KMNS 222300Z 05016KT 17/10 A3005 RMK A01 T01650095  RH  065%=      5-min Rain = 0
KMNS 222305Z 05016KT 16/10 A3005 RMK A01 T01640095  RH  066%=      5-min Rain = 0
KMNS 222310Z 05017KT 16/10 A3005 RMK A01 T01610095  RH  067%=      5-min Rain = 0
KMNS 222315Z 06014G19KT 16/10 A3005 RMK A01 T01600097  RH  068%=      5-min Rain = 0
KMNS 222320Z 07014KT 16/10 A3006 RMK A01 T01590098  RH  069%=      5-min Rain = 0
KMNS 222325Z 07011KT 16/10 A3006 RMK A01 T01590101  RH  071%=      5-min Rain = 0
KMNS 222330Z 07011KT 16/10 A3006 RMK A01 T01580102  RH  072%=      5-min Rain = 0
KMNS 222335Z 06012G17KT 16/10 A3006 RMK A01 T01580103  RH  072%=      5-min Rain = 0
KMNS 222340Z 06013KT 16/10 A3006 RMK A01 T01570102  RH  072%=      5-min Rain = 0
KMNS 222345Z 06014KT 16/10 A3006 RMK A01 T01570101  RH  072%=      5-min Rain = 0
KMNS 222350Z 05016G21KT 16/10 A3006 RMK A01 T01560101  RH  072%=      5-min Rain = 0
KMNS 222355Z 05016KT 15/10 A3005 RMK A01 T01540101  RH  073%=      5-min Rain = 0
KMNS 230000Z 05015KT 15/10 A3005 RMK A01 T01540103  RH  074%=      5-min Rain = 0
KMNS 230005Z 05016G21KT 15/10 A3005 RMK A01 T01540103  RH  074%=      5-min Rain = 0
KMNS 230010Z 05015G20KT 15/10 A3005 RMK A01 T01530103  RH  075%=      5-min Rain = 0
KMNS 230015Z 05016KT 15/10 A3005 RMK A01 T01520103  RH  075%=      5-min Rain = 0
KMNS 230020Z 05017KT 15/10 A3005 RMK A01 T01510103  RH  075%=      5-min Rain = 0
KMNS 230025Z 05015G22KT 15/10 A3005 RMK A01 T01510104  RH  076%=      5-min Rain = 0
KMNS 230030Z 05015G20KT 15/10 A3004 RMK A01 T01500104  RH  076%=      5-min Rain = 0
KMNS 230035Z 05014G19KT 15/10 A3004 RMK A01 T01500103  RH  076%=      5-min Rain = 0
KMNS 230040Z 04017KT 15/10 A3004 RMK A01 T01500103  RH  076%=      5-min Rain = 0
KMNS 230045Z 05015KT 15/10 A3004 RMK A01 T01490103  RH  076%=      5-min Rain = 0
KMNS 230050Z 05015KT 15/10 A3004 RMK A01 T01480103  RH  077%=      5-min Rain = 0
KMNS 230055Z 06014G19KT 15/10 A3005 RMK A01 T01480103  RH  077%=      5-min Rain = 0
KMNS 230100Z 07014KT 15/10 A3005 RMK A01 T01470103  RH  078%=      5-min Rain = 0
KMNS 230105Z 07014KT 15/10 A3005 RMK A01 T01460103  RH  078%=      5-min Rain = 0
KMNS 230110Z 07013KT 15/11 A3005 RMK A01 T01450105  RH  080%=      5-min Rain = 0
KMNS 230115Z 06012KT 14/11 A3005 RMK A01 T01440106  RH  081%=      5-min Rain = 0
KMNS 230120Z 06011KT 14/11 A3006 RMK A01 T01430107  RH  082%=      5-min Rain = 0
KMNS 230125Z 07012KT 14/11 A3006 RMK A01 T01430107  RH  082%=      5-min Rain = 0
KMNS 230130Z 07013KT 14/11 A3006 RMK A01 T01430106  RH  081%=      5-min Rain = 0
KMNS 230135Z 06013KT 14/11 A3006 RMK A01 T01430106  RH  081%=      5-min Rain = 0
KMNS 230140Z 06013G18KT 14/11 A3006 RMK A01 T01420106  RH  082%=      5-min Rain = 0
KMNS 230145Z 06013KT 14/11 A3006 RMK A01 T01420106  RH  082%=      5-min Rain = 0
KMNS 230150Z 05015KT 14/11 A3005 RMK A01 T01410105  RH  082%=      5-min Rain = 0
KMNS 230155Z 05014KT 14/11 A3005 RMK A01 T01410105  RH  082%=      5-min Rain = 0
KMNS 230200Z 05013KT 14/10 A3005 RMK A01 T01400104  RH  082%=      5-min Rain = 0
KMNS 230205Z 05014KT 14/10 A3006 RMK A01 T01400104  RH  082%=      5-min Rain = 0
KMNS 230210Z 06012KT 14/11 A3006 RMK A01 T01390105  RH  082%=      5-min Rain = 0
KMNS 230215Z 06011KT 14/11 A3007 RMK A01 T01390105  RH  083%=      5-min Rain = 0
KMNS 230220Z 06013G18KT 14/11 A3007 RMK A01 T01380105  RH  083%=      5-min Rain = 0
KMNS 230225Z 06014G19KT 14/11 A3007 RMK A01 T01370105  RH  083%=      5-min Rain = 0
KMNS 230230Z 05012G17KT 14/10 A3006 RMK A01 T01370104  RH  084%=      5-min Rain = 0
KMNS 230235Z 06013KT 14/11 A3007 RMK A01 T01360105  RH  084%=      5-min Rain = 0
KMNS 230240Z 05013G19KT 14/11 A3007 RMK A01 T01360105  RH  085%=      5-min Rain = 0
KMNS 230245Z 05014KT 14/11 A3007 RMK A01 T01350105  RH  085%=      5-min Rain = 0
KMNS 230250Z 05013KT 14/11 A3007 RMK A01 T01350105  RH  085%=      5-min Rain = 0
KMNS 230255Z 04013KT 13/11 A3007 RMK A01 T01340106  RH  086%=      5-min Rain = 0
KMNS 230300Z 04013KT 13/11 A3007 RMK A01 T01330105  RH  086%=      5-min Rain = 0
KMNS 230305Z 04014KT 13/10 A3007 RMK A01 T01310104  RH  087%=      5-min Rain = 0
KMNS 230310Z 05013KT 13/10 A3006 RMK A01 T01290103  RH  087%=      5-min Rain = 0
KMNS 230315Z 05013KT 13/10 A3006 RMK A01 T01280103  RH  088%=      5-min Rain = 0
KMNS 230320Z 05013KT 13/10 A3006 RMK A01 T01270102  RH  088%=      5-min Rain = 0
KMNS 230325Z 05012KT 13/10 A3007 RMK A01 T01260102  RH  089%=      5-min Rain = 0
KMNS 230330Z 06012KT 13/10 A3007 RMK A01 T01250102  RH  089%=      5-min Rain = 0
KMNS 230335Z 06011KT 12/10 A3006 RMK A01 T01240102  RH  090%=      5-min Rain = 0
KMNS 230340Z 05012KT 12/10 A3006 RMK A01 T01230102  RH  090%=      5-min Rain = 0
KMNS 230345Z 05011KT 12/10 A3006 RMK A01 T01230102  RH  090%=      5-min Rain = 0
KMNS 230350Z 05011KT 12/10 A3006 RMK A01 T01220102  RH  091%=      5-min Rain = 0
KMNS 230355Z 05011KT 12/10 A3006 RMK A01 T01220102  RH  091%=      5-min Rain = 0
KMNS 230400Z 04012KT 12/10 A3006 RMK A01 T01210102  RH  091%=      5-min Rain = 0
KMNS 230405Z 05011KT 12/10 A3005 RMK A01 T01200101  RH  091%=      5-min Rain = 0
KMNS 230410Z 04011KT 12/10 A3005 RMK A01 T01200101  RH  091%=      5-min Rain = 0
KMNS 230415Z 04010KT 12/10 A3006 RMK A01 T01200102  RH  092%=      5-min Rain = 0
KMNS 230420Z 04009KT 12/10 A3007 RMK A01 T01200102  RH  092%=      5-min Rain = 0
KMNS 230425Z 05008KT 12/10 A3007 RMK A01 T01200103  RH  092%=      5-min Rain = 0
KMNS 230430Z 05008KT 12/10 A3008 RMK A01 T01210103  RH  092%=      5-min Rain = 0
KMNS 230435Z 05008KT 12/10 A3008 RMK A01 T01220103  RH  092%=      5-min Rain = 0
KMNS 230440Z 05010KT 12/10 A3008 RMK A01 T01220103  RH  091%=      5-min Rain = 0
KMNS 230445Z 05010KT 12/10 A3008 RMK A01 T01220103  RH  091%=      5-min Rain = 0
KMNS 230450Z 05010KT 12/10 A3008 RMK A01 T01220102  RH  090%=      5-min Rain = 0
KMNS 230455Z 05010KT 12/10 A3007 RMK A01 T01220102  RH  090%=      5-min Rain = 0

Page generated in 0.0141 seconds.